Time;durP1;ratioP1;P1;durP2;ratioP2;P2;SDS_P1;SDS_P2;PMS_P1;PMS_P2;Temp;Humidity;BMP_temperature;BMP_pressure;BME280_temperature;BME280_humidity;BME280_pressure;Samples;Min_cycle;Max_cycle;Signal;HPM_P1;HPM_P2
2022/11/20 00:00:01;;;;;;;34.58;20.63;;;-2.30;99.90;;;;;;4943929;28;20035;-83
2022/11/20 00:02:26;;;;;;;37.22;20.38;;;-2.10;99.90;;;;;;4942315;28;20058;-83
2022/11/20 00:04:52;;;;;;;35.97;20.08;;;-2.20;99.90;;;;;;4926341;28;20035;-83
2022/11/20 00:07:17;;;;;;;34.83;18.40;;;-2.20;99.90;;;;;;4948165;28;20062;-83
2022/11/20 00:09:43;;;;;;;36.33;18.95;;;-2.30;99.90;;;;;;4951192;28;20458;-83
2022/11/20 00:12:09;;;;;;;37.85;20.45;;;-2.50;99.90;;;;;;4947512;28;20058;-83
2022/11/20 00:14:34;;;;;;;36.38;20.92;;;-2.60;99.90;;;;;;4941258;28;20049;-83
2022/11/20 00:17:00;;;;;;;38.40;19.42;;;-2.60;99.90;;;;;;4965523;28;20023;-83
2022/11/20 00:19:25;;;;;;;27.27;14.38;;;-2.70;99.90;;;;;;4974078;28;20034;-83
2022/11/20 00:21:53;;;;;;;36.65;21.38;;;-2.50;99.90;;;;;;4985566;28;20031;-83
2022/11/20 00:24:19;;;;;;;40.03;20.77;;;-2.60;99.90;;;;;;4948975;28;20065;-83
2022/11/20 00:26:44;;;;;;;26.48;14.27;;;-2.70;99.90;;;;;;4958705;28;20027;-83
2022/11/20 00:29:10;;;;;;;31.65;18.35;;;-2.60;99.90;;;;;;4952416;28;20574;-83
2022/11/20 00:31:36;;;;;;;37.80;20.90;;;-2.40;99.90;;;;;;4946350;28;20038;-83
2022/11/20 00:34:01;;;;;;;36.40;19.98;;;-2.50;99.90;;;;;;4933356;28;20117;-83
2022/11/20 00:36:27;;;;;;;35.15;19.92;;;-2.70;99.90;;;;;;4945958;28;20039;-82
2022/11/20 00:38:54;;;;;;;37.80;19.92;;;-2.70;99.90;;;;;;4963792;28;20039;-83
2022/11/20 00:41:20;;;;;;;40.33;19.25;;;-2.70;99.90;;;;;;4916625;28;20035;-83
2022/11/20 00:43:45;;;;;;;38.75;20.52;;;-2.80;99.90;;;;;;4950442;28;20126;-83
2022/11/20 00:46:15;;;;;;;33.60;19.65;;;-2.80;99.90;;;;;;4956658;28;20514;-83
2022/11/20 00:48:40;;;;;;;36.92;19.05;;;-2.80;99.90;;;;;;4979162;28;20037;-83
2022/11/20 00:51:06;;;;;;;39.38;20.98;;;-2.90;99.90;;;;;;4950713;28;20558;-83
2022/11/20 00:53:32;;;;;;;35.25;19.92;;;-3.00;99.90;;;;;;4939744;28;20498;-83
2022/11/20 00:55:58;;;;;;;38.47;19.95;;;-3.00;99.90;;;;;;4965849;28;20102;-83
2022/11/20 00:58:24;;;;;;;32.25;18.70;;;-3.00;99.90;;;;;;4952813;28;20398;-82
2022/11/20 01:00:50;;;;;;;49.58;21.27;;;-2.90;99.90;;;;;;4962320;28;20778;-83
2022/11/20 01:03:19;;;;;;;37.92;19.38;;;-2.80;99.90;;;;;;4965084;28;20058;-82
2022/11/20 01:05:44;;;;;;;37.55;21.10;;;-2.80;99.90;;;;;;4948423;28;20031;-82
2022/11/20 01:08:10;;;;;;;38.72;20.27;;;-2.80;99.90;;;;;;4950731;28;20045;-83
2022/11/20 01:10:36;;;;;;;38.95;21.27;;;-2.80;99.90;;;;;;4958051;28;20090;-82
2022/11/20 01:15:45;;;;;;;43.05;21.83;;;-2.60;99.90;;;;;;4976259;28;20128;-82
2022/11/20 01:18:11;;;;;;;33.85;18.98;;;-2.50;99.90;;;;;;4965793;28;20106;-83
2022/11/20 01:20:36;;;;;;;27.95;16.55;;;-2.40;99.90;;;;;;4960995;28;20031;-83
2022/11/20 01:23:03;;;;;;;35.80;19.70;;;-2.40;99.90;;;;;;4953965;28;20098;-83
2022/11/20 01:25:28;;;;;;;37.60;20.73;;;-2.40;99.90;;;;;;4963388;28;20082;-84
2022/11/20 01:27:54;;;;;;;36.80;20.05;;;-2.40;99.90;;;;;;4965337;28;20486;-83
2022/11/20 01:30:19;;;;;;;37.42;20.17;;;-2.20;99.90;;;;;;4927993;28;20023;-82
2022/11/20 01:32:45;;;;;;;40.22;22.10;;;-2.40;99.90;;;;;;4942598;28;20086;-83
2022/11/20 01:35:11;;;;;;;39.65;19.85;;;-2.40;99.90;;;;;;4955104;28;20638;-83
2022/11/20 01:37:36;;;;;;;39.03;21.30;;;-2.40;99.90;;;;;;4966742;28;20398;-83
2022/11/20 01:40:02;;;;;;;36.42;19.90;;;-2.30;99.90;;;;;;4948986;28;20027;-82
2022/11/20 01:45:46;;;;;;;32.60;14.52;;;-2.10;99.90;;;;;;4961600;28;20118;-83
2022/11/20 01:48:11;;;;;;;37.13;20.05;;;-2.00;99.90;;;;;;4960332;28;20660;-83
2022/11/20 01:50:37;;;;;;;37.65;19.15;;;-2.10;99.90;;;;;;4951003;28;20023;-84
2022/11/20 01:53:05;;;;;;;37.95;19.98;;;-2.00;99.90;;;;;;4951719;28;20035;-83
2022/11/20 01:55:32;;;;;;;35.95;19.33;;;-2.00;99.90;;;;;;4928429;28;20109;-83
2022/11/20 01:57:58;;;;;;;43.58;22.20;;;-1.90;99.90;;;;;;4959449;28;20494;-84
2022/11/20 02:00:29;;;;;;;37.13;21.10;;;-2.00;99.90;;;;;;4964188;28;20157;-84
2022/11/20 02:03:08;;;;;;;37.80;20.90;;;-1.80;99.90;;;;;;4951787;28;20129;-84
2022/11/20 02:05:38;;;;;;;38.45;20.40;;;-1.80;99.90;;;;;;4950160;28;20478;-84
2022/11/20 02:08:04;;;;;;;39.15;20.17;;;-1.70;99.90;;;;;;4975855;28;20491;-84
2022/11/20 02:10:30;;;;;;;36.42;21.40;;;-1.60;99.90;;;;;;4968567;28;20053;-84
2022/11/20 02:15:40;;;;;;;33.38;16.83;;;-1.50;99.90;;;;;;4963630;28;20042;-84
2022/11/20 02:18:05;;;;;;;22.30;12.93;;;-1.60;99.90;;;;;;4941304;28;20406;-82
2022/11/20 02:20:31;;;;;;;23.50;13.82;;;-1.50;99.90;;;;;;4961948;28;20041;-82
2022/11/20 02:23:31;;;;;;;30.98;16.38;;;-1.40;99.90;;;;;;4959111;28;20426;-82
2022/11/20 02:25:57;;;;;;;37.83;20.70;;;-1.40;99.90;;;;;;4950433;28;20363;-82
2022/11/20 02:28:22;;;;;;;39.53;20.50;;;-1.40;99.90;;;;;;4931645;28;20038;-83
2022/11/20 02:30:48;;;;;;;36.15;20.95;;;-1.30;99.90;;;;;;4969356;28;20626;-83
2022/11/20 02:33:13;;;;;;;36.53;21.33;;;-1.30;99.90;;;;;;4950116;28;20034;-83
2022/11/20 02:35:44;;;;;;;25.88;15.05;;;-1.30;99.90;;;;;;4963388;28;20102;-83
2022/11/20 02:38:09;;;;;;;36.08;20.80;;;-1.30;99.90;;;;;;4920833;28;20799;-83
2022/11/20 02:40:35;;;;;;;38.80;22.02;;;-1.20;99.90;;;;;;4934532;28;20039;-83
2022/11/20 02:43:00;;;;;;;36.03;20.27;;;-1.20;99.90;;;;;;4965365;28;20450;-83
2022/11/20 02:45:26;;;;;;;27.30;15.10;;;-1.20;99.90;;;;;;4963715;28;20027;-83
2022/11/20 02:47:51;;;;;;;34.40;20.10;;;-1.20;99.90;;;;;;4959745;28;20034;-83
2022/11/20 02:50:17;;;;;;;38.05;21.65;;;-1.10;99.90;;;;;;4961736;28;20110;-83
2022/11/20 02:52:43;;;;;;;41.38;22.35;;;-1.10;99.90;;;;;;4964312;28;20034;-83
2022/11/20 02:55:08;;;;;;;38.65;23.63;;;-1.10;99.90;;;;;;4947335;28;20772;-82
2022/11/20 02:57:34;;;;;;;36.38;21.45;;;-1.10;99.90;;;;;;4964170;28;20078;-82
2022/11/20 03:00:18;;;;;;;34.60;21.50;;;-1.10;99.90;;;;;;4943384;28;20546;-83
2022/11/20 03:02:44;;;;;;;38.33;22.25;;;-1.00;99.90;;;;;;4951460;28;20035;-83
2022/11/20 03:05:09;;;;;;;37.67;20.40;;;-1.10;99.90;;;;;;4956190;28;20782;-82
2022/11/20 03:07:35;;;;;;;24.27;14.88;;;-1.10;99.90;;;;;;4971606;28;20038;-83
2022/11/20 03:10:00;;;;;;;37.55;19.92;;;-1.10;99.90;;;;;;4980925;28;20035;-82
2022/11/20 03:12:26;;;;;;;44.72;23.00;;;-0.90;99.90;;;;;;4955910;28;20034;-83
2022/11/20 03:14:51;;;;;;;21.33;11.30;;;-0.90;99.90;;;;;;4949450;28;20038;-83
2022/11/20 03:17:17;;;;;;;41.53;22.27;;;-0.90;99.90;;;;;;4949192;28;20113;-83
2022/11/20 03:19:42;;;;;;;40.03;20.58;;;-0.80;99.90;;;;;;4964624;28;20094;-83
2022/11/20 03:22:08;;;;;;;37.05;20.40;;;-0.90;99.90;;;;;;4968775;28;20039;-83
2022/11/20 03:24:35;;;;;;;34.63;20.40;;;-0.90;99.90;;;;;;4962598;28;20105;-84
2022/11/20 03:27:01;;;;;;;31.98;18.23;;;-0.80;99.90;;;;;;4967791;28;20037;-83
2022/11/20 03:29:27;;;;;;;36.00;21.77;;;-0.80;99.90;;;;;;4967436;28;20449;-83
2022/11/20 03:31:52;;;;;;;39.55;21.02;;;-0.80;99.90;;;;;;4950836;28;20035;-83
2022/11/20 03:34:18;;;;;;;38.88;21.70;;;-0.70;99.90;;;;;;4935994;28;20423;-83
2022/11/20 03:36:43;;;;;;;44.05;20.80;;;-0.70;99.90;;;;;;4989365;28;20026;-83
2022/11/20 03:39:09;;;;;;;24.60;14.15;;;-0.80;99.90;;;;;;4937003;28;20066;-84
2022/11/20 03:41:39;;;;;;;36.97;20.55;;;-0.80;99.90;;;;;;4965177;28;20034;-83
2022/11/20 03:44:05;;;;;;;39.30;23.13;;;-0.70;99.90;;;;;;4961402;28;20062;-85
2022/11/20 03:46:41;;;;;;;40.83;22.15;;;-0.70;99.90;;;;;;4964198;28;20035;-86
2022/11/20 03:49:06;;;;;;;38.35;22.20;;;-0.80;99.90;;;;;;4969425;28;20121;-80
2022/11/20 03:51:33;;;;;;;40.85;21.23;;;-0.70;99.90;;;;;;4964793;28;20554;-80
2022/11/20 03:54:06;;;;;;;39.13;20.92;;;-0.70;99.90;;;;;;4971108;28;20070;-80
2022/11/20 03:56:33;;;;;;;38.28;21.75;;;-0.70;99.90;;;;;;4964653;28;20630;-80
2022/11/20 03:58:58;;;;;;;21.77;12.10;;;-0.70;99.90;;;;;;4955247;28;20043;-80
2022/11/20 04:01:29;;;;;;;40.63;22.02;;;-0.60;99.90;;;;;;4961316;28;20107;-80
2022/11/20 04:03:55;;;;;;;40.55;22.48;;;-0.50;99.90;;;;;;4963547;28;20042;-79
2022/11/20 04:06:23;;;;;;;40.70;22.17;;;-0.60;99.90;;;;;;4936306;28;20133;-80
2022/11/20 04:08:48;;;;;;;37.47;22.38;;;-0.60;99.90;;;;;;4962971;28;20043;-80
2022/11/20 04:11:18;;;;;;;43.17;21.45;;;-0.50;99.90;;;;;;4951992;28;20068;-79
2022/11/20 04:13:46;;;;;;;20.38;12.30;;;-0.50;99.90;;;;;;4969457;28;20035;-80
2022/11/20 04:16:12;;;;;;;29.38;16.95;;;-0.50;99.90;;;;;;4960925;28;20562;-79
2022/11/20 04:18:37;;;;;;;40.00;22.15;;;-0.30;99.90;;;;;;4956336;28;20035;-79
2022/11/20 04:21:03;;;;;;;38.88;20.02;;;-0.30;99.90;;;;;;4947961;28;20150;-79
2022/11/20 04:23:29;;;;;;;37.30;21.38;;;-0.30;99.90;;;;;;4951118;28;20059;-79
2022/11/20 04:25:54;;;;;;;36.13;20.83;;;-0.40;99.90;;;;;;4952961;28;20039;-79
2022/11/20 04:28:20;;;;;;;37.53;20.85;;;-0.40;99.90;;;;;;4933295;28;20107;-80
2022/11/20 04:30:49;;;;;;;33.92;19.90;;;-0.40;99.90;;;;;;4954919;28;20394;-79
2022/11/20 04:33:15;;;;;;;24.95;14.27;;;-0.30;99.90;;;;;;4948277;28;20031;-80
2022/11/20 04:35:40;;;;;;;36.95;21.15;;;-0.40;99.90;;;;;;4967037;28;20371;-79
2022/11/20 04:38:06;;;;;;;25.98;13.85;;;-0.30;99.90;;;;;;4952762;28;20035;-79
2022/11/20 04:40:31;;;;;;;40.47;19.65;;;-0.30;99.90;;;;;;4946947;28;20394;-79
2022/11/20 04:42:57;;;;;;;22.80;10.70;;;-0.20;99.90;;;;;;4973289;28;20035;-79
2022/11/20 04:45:23;;;;;;;19.77;11.98;;;-0.20;99.90;;;;;;4948282;28;20023;-79
2022/11/20 04:47:48;;;;;;;24.42;13.52;;;-0.20;99.90;;;;;;4951191;28;20110;-80
2022/11/20 04:50:14;;;;;;;36.25;19.58;;;-0.10;99.90;;;;;;4954313;28;20030;-80
2022/11/20 04:52:39;;;;;;;17.25;10.10;;;-0.10;99.90;;;;;;4946115;28;20062;-81
2022/11/20 04:55:06;;;;;;;43.10;23.65;;;-0.20;99.90;;;;;;4934454;28;20101;-79
2022/11/20 04:57:31;;;;;;;37.72;19.20;;;-0.20;99.90;;;;;;4950497;28;20097;-80
2022/11/20 04:59:57;;;;;;;35.80;20.08;;;-0.30;99.90;;;;;;4954316;28;20486;-79
2022/11/20 05:02:22;;;;;;;24.35;13.25;;;-0.30;99.90;;;;;;4938604;28;20403;-80
2022/11/20 05:04:48;;;;;;;22.90;13.15;;;-0.30;99.90;;;;;;4965789;28;20027;-81
2022/11/20 05:07:13;;;;;;;18.52;10.48;;;-0.20;99.90;;;;;;4962003;28;20065;-80
2022/11/20 05:09:39;;;;;;;40.88;22.67;;;0.00;99.90;;;;;;4950614;28;20034;-80
2022/11/20 05:12:06;;;;;;;18.58;10.90;;;0.00;99.90;;;;;;4947098;28;20034;-79
2022/11/20 05:14:32;;;;;;;21.00;13.13;;;-0.10;99.90;;;;;;4951435;28;20109;-79
2022/11/20 05:16:57;;;;;;;26.40;15.35;;;-0.10;99.90;;;;;;4965449;28;20110;-79
2022/11/20 05:19:23;;;;;;;22.55;13.63;;;-0.10;99.90;;;;;;4937474;28;20185;-80
2022/11/20 05:21:48;;;;;;;24.73;13.45;;;0.10;99.90;;;;;;4943330;28;20510;-81
2022/11/20 05:24:14;;;;;;;20.15;11.90;;;-0.10;99.90;;;;;;4967285;28;20494;-79
2022/11/20 05:26:39;;;;;;;24.60;15.57;;;0.10;99.90;;;;;;4961766;28;20506;-79
2022/11/20 05:29:05;;;;;;;39.42;23.15;;;0.00;99.90;;;;;;4949180;28;20035;-79
2022/11/20 05:31:30;;;;;;;32.13;18.98;;;0.00;99.90;;;;;;4952394;28;20101;-79
2022/11/20 05:33:56;;;;;;;27.63;16.88;;;0.00;99.90;;;;;;4945646;28;20027;-80
2022/11/20 05:36:22;;;;;;;28.27;17.73;;;0.10;99.90;;;;;;4966943;28;20027;-79
2022/11/20 05:38:47;;;;;;;33.80;22.20;;;0.10;99.90;;;;;;4967940;28;20049;-80
2022/11/20 05:41:18;;;;;;;38.63;22.15;;;-0.10;99.90;;;;;;4962846;28;20088;-79
2022/11/20 05:43:44;;;;;;;39.30;22.73;;;-0.10;99.90;;;;;;4960642;28;20517;-79
2022/11/20 05:46:11;;;;;;;24.77;15.13;;;-0.10;99.90;;;;;;4945664;28;20050;-79
2022/11/20 05:48:37;;;;;;;25.88;15.35;;;-0.20;99.90;;;;;;4944912;28;20510;-79
2022/11/20 05:51:03;;;;;;;40.63;22.02;;;0.00;99.90;;;;;;4949843;28;20046;-79
2022/11/20 05:53:29;;;;;;;38.88;22.38;;;-0.10;99.90;;;;;;4961113;28;20035;-80
2022/11/20 05:56:05;;;;;;;38.75;21.60;;;0.00;99.90;;;;;;4963576;28;20035;-80
2022/11/20 05:58:30;;;;;;;;;;;-0.10;99.90;;;;;;4922792;28;20117;-79
2022/11/20 06:01:06;;;;;;;24.90;15.65;;;0.00;99.90;;;;;;4931976;28;20413;-80
2022/11/20 06:03:32;;;;;;;40.75;22.52;;;0.00;99.90;;;;;;4919234;28;20027;-81
2022/11/20 06:06:06;;;;;;;35.80;21.08;;;0.00;99.90;;;;;;4962155;28;20434;-81
2022/11/20 06:08:31;;;;;;;40.90;21.17;;;-0.10;99.90;;;;;;4937082;28;20123;-80
2022/11/20 06:10:57;;;;;;;42.22;23.15;;;-0.20;99.90;;;;;;4967178;28;20620;-80
2022/11/20 06:13:23;;;;;;;38.72;22.60;;;-0.20;99.90;;;;;;4964143;28;20034;-80
2022/11/20 06:15:55;;;;;;;24.13;14.82;;;-0.10;99.90;;;;;;4965971;28;20038;-80
2022/11/20 06:18:21;;;;;;;40.75;24.00;;;-0.10;99.90;;;;;;4963753;28;21285;-82
2022/11/20 06:20:46;;;;;;;42.72;24.98;;;0.00;99.90;;;;;;4931603;28;20027;-81
2022/11/20 06:23:12;;;;;;;24.50;15.10;;;0.00;99.90;;;;;;4936322;28;20061;-82
2022/11/20 06:25:41;;;;;;;41.40;23.33;;;-0.10;99.90;;;;;;4961388;28;20101;-81
2022/11/20 06:28:07;;;;;;;41.97;23.30;;;0.00;99.90;;;;;;4936989;28;20032;-82
2022/11/20 06:30:32;;;;;;;41.53;22.42;;;-0.10;99.90;;;;;;4952982;28;20405;-81
2022/11/20 06:32:58;;;;;;;45.05;23.30;;;-0.10;99.90;;;;;;4947712;28;20526;-81
2022/11/20 06:35:23;;;;;;;40.13;23.08;;;-0.20;99.90;;;;;;4968217;28;20031;-84
2022/11/20 06:37:49;;;;;;;44.40;23.33;;;-0.20;99.90;;;;;;4925801;28;20128;-82
2022/11/20 06:40:14;;;;;;;39.90;23.20;;;-0.20;99.90;;;;;;4948967;28;20085;-82
2022/11/20 06:42:40;;;;;;;39.15;22.02;;;-0.30;99.90;;;;;;4967471;28;20035;-81
2022/11/20 06:45:06;;;;;;;26.52;13.75;;;-0.30;99.90;;;;;;4954563;28;20415;-81
2022/11/20 06:47:32;;;;;;;27.15;15.63;;;-0.20;99.90;;;;;;4951589;28;20406;-82
2022/11/20 06:49:57;;;;;;;33.90;19.10;;;0.00;99.90;;;;;;4962481;28;20046;-82
2022/11/20 06:52:23;;;;;;;40.45;22.42;;;0.00;99.90;;;;;;4967540;28;20042;-81
2022/11/20 06:54:48;;;;;;;39.50;20.70;;;-0.10;99.90;;;;;;4974054;28;20019;-81
2022/11/20 06:57:14;;;;;;;39.38;22.83;;;-0.20;99.90;;;;;;4985202;28;20402;-81
2022/11/20 06:59:39;;;;;;;38.13;22.33;;;-0.30;99.90;;;;;;4947817;28;20406;-81
2022/11/20 07:02:05;;;;;;;26.52;14.75;;;-0.30;99.90;;;;;;4968319;28;20114;-81
2022/11/20 07:04:30;;;;;;;31.08;17.90;;;-0.40;99.90;;;;;;4970416;28;20053;-82
2022/11/20 07:06:56;;;;;;;28.60;17.17;;;-0.20;99.90;;;;;;4966572;28;20439;-81
2022/11/20 07:09:21;;;;;;;36.47;22.13;;;-0.20;99.90;;;;;;4938986;28;20114;-82
2022/11/20 07:11:47;;;;;;;37.65;22.60;;;-0.20;99.90;;;;;;4959491;28;20050;-82
2022/11/20 07:14:12;;;;;;;39.45;22.90;;;-0.40;99.90;;;;;;4938893;28;20038;-82
2022/11/20 07:16:38;;;;;;;33.60;19.50;;;-0.50;99.90;;;;;;4949111;28;20039;-82
2022/11/20 07:19:03;;;;;;;49.80;26.15;;;-0.40;99.90;;;;;;4967229;28;20039;-82
2022/11/20 07:21:29;;;;;;;42.13;23.35;;;-0.40;99.90;;;;;;4939048;28;20050;-82
2022/11/20 07:23:56;;;;;;;47.15;25.98;;;-0.50;99.90;;;;;;4949939;28;20127;-82
2022/11/20 07:26:21;;;;;;;22.75;14.07;;;-0.50;99.90;;;;;;4932565;28;20166;-81
2022/11/20 07:28:47;;;;;;;31.95;18.73;;;-0.40;99.90;;;;;;4948820;28;20122;-81
2022/11/20 07:31:12;;;;;;;30.55;18.08;;;-0.20;99.90;;;;;;4963991;28;20382;-82
2022/11/20 07:33:38;;;;;;;27.98;15.43;;;-0.30;99.90;;;;;;4954535;28;20039;-81
2022/11/20 07:36:04;;;;;;;33.05;20.65;;;-0.20;99.90;;;;;;4965265;28;20132;-82
2022/11/20 07:38:32;;;;;;;35.72;20.58;;;-0.20;99.90;;;;;;4939891;28;20491;-82
2022/11/20 07:41:05;;;;;;;38.65;20.95;;;-0.20;99.90;;;;;;4954601;28;20051;-82
2022/11/20 07:43:31;;;;;;;42.25;21.70;;;-0.20;99.90;;;;;;4953975;28;20035;-82
2022/11/20 07:45:57;;;;;;;30.67;17.63;;;-0.20;99.90;;;;;;4963439;28;20065;-82
2022/11/20 07:48:24;;;;;;;43.72;23.27;;;-0.30;99.90;;;;;;4950324;28;20035;-82
2022/11/20 07:50:52;;;;;;;37.38;23.02;;;-0.20;99.90;;;;;;4952472;28;20561;-82
2022/11/20 07:53:21;;;;;;;42.70;23.67;;;-0.10;99.90;;;;;;4969705;28;20034;-82
2022/11/20 07:55:47;;;;;;;41.25;23.58;;;-0.10;99.90;;;;;;4961060;28;20036;-82
2022/11/20 07:58:13;;;;;;;43.65;24.38;;;-0.20;99.90;;;;;;4950057;28;20049;-82
2022/11/20 08:00:39;;;;;;;41.03;24.20;;;-0.20;99.90;;;;;;4952378;28;20110;-82
2022/11/20 08:03:05;;;;;;;43.15;23.42;;;-0.20;99.90;;;;;;4945941;28;20621;-82
2022/11/20 08:05:37;;;;;;;40.63;24.20;;;-0.20;99.90;;;;;;4955444;28;20030;-83
2022/11/20 08:08:03;;;;;;;45.33;25.67;;;-0.20;99.90;;;;;;4965430;28;20046;-82
2022/11/20 08:10:29;;;;;;;49.53;26.30;;;-0.20;99.90;;;;;;4956708;28;20039;-81
2022/11/20 08:15:39;;;;;;;38.10;22.67;;;-0.10;99.90;;;;;;4949963;28;20049;-83
2022/11/20 08:18:13;;;;;;;42.05;23.10;;;-0.10;99.90;;;;;;4943094;28;20514;-82
2022/11/20 08:20:40;;;;;;;43.90;24.08;;;-0.20;99.90;;;;;;4983316;28;20025;-83
2022/11/20 08:23:06;;;;;;;38.03;22.95;;;-0.20;99.90;;;;;;4967179;28;20081;-82
2022/11/20 08:25:32;;;;;;;40.85;23.65;;;-0.10;99.90;;;;;;4953625;28;20086;-81
2022/11/20 08:27:58;;;;;;;37.75;21.90;;;-0.10;99.90;;;;;;4954814;28;20050;-83
2022/11/20 08:30:24;;;;;;;34.95;18.90;;;0.00;99.90;;;;;;4947074;28;20031;-83
2022/11/20 08:32:50;;;;;;;41.20;22.58;;;0.10;99.90;;;;;;4945375;28;20613;-82
2022/11/20 08:35:15;;;;;;;45.03;23.67;;;0.20;99.90;;;;;;4946950;28;20034;-83
2022/11/20 08:37:41;;;;;;;41.40;22.70;;;0.30;99.90;;;;;;4947499;28;20482;-81
2022/11/20 08:40:11;;;;;;;43.20;24.92;;;0.40;99.90;;;;;;4953910;28;20030;-83
2022/11/20 08:42:36;;;;;;;51.92;28.13;;;0.50;99.90;;;;;;4949089;28;20471;-82
2022/11/20 08:45:04;;;;;;;41.05;24.50;;;0.40;99.90;;;;;;4964867;28;20031;-82
2022/11/20 08:47:30;;;;;;;30.50;18.10;;;0.50;99.90;;;;;;4944471;28;20035;-83
2022/11/20 08:49:55;;;;;;;48.88;26.50;;;0.70;99.90;;;;;;4966828;28;20047;-83
2022/11/20 08:52:21;;;;;;;35.30;20.40;;;0.80;99.90;;;;;;4967418;28;20034;-83
2022/11/20 08:54:46;;;;;;;46.53;28.35;;;0.90;99.90;;;;;;4954034;28;20027;-83
2022/11/20 08:57:12;;;;;;;49.42;28.35;;;0.90;99.90;;;;;;4952118;28;20513;-83
2022/11/20 08:59:37;;;;;;;44.10;26.08;;;0.90;99.90;;;;;;4945219;28;20529;-83
2022/11/20 09:02:03;;;;;;;47.42;26.52;;;1.00;99.90;;;;;;4944222;28;20032;-83
2022/11/20 09:04:28;;;;;;;24.85;14.88;;;1.10;99.90;;;;;;4969178;28;20042;-81
2022/11/20 09:06:54;;;;;;;25.30;15.40;;;1.30;99.90;;;;;;4956199;28;20038;-83
2022/11/20 09:09:19;;;;;;;39.38;21.63;;;1.40;99.90;;;;;;4934916;28;20464;-82
2022/11/20 09:11:45;;;;;;;25.75;15.48;;;1.50;99.90;;;;;;4963521;28;20047;-83
2022/11/20 09:14:10;;;;;;;37.00;20.40;;;1.50;99.90;;;;;;4965444;28;20117;-83
2022/11/20 09:16:36;;;;;;;27.80;17.30;;;1.60;99.90;;;;;;4945762;28;20442;-82
2022/11/20 09:19:01;;;;;;;25.75;14.93;;;1.70;99.90;;;;;;4953537;28;20069;-82
2022/11/20 09:21:27;;;;;;;28.67;17.20;;;1.80;99.90;;;;;;4947659;28;20035;-81
2022/11/20 09:23:52;;;;;;;50.67;29.08;;;1.90;99.90;;;;;;4948896;28;20728;-82
2022/11/20 09:26:19;;;;;;;45.80;25.90;;;2.00;99.90;;;;;;4936213;28;20045;-81
2022/11/20 09:28:44;;;;;;;35.38;20.40;;;2.00;99.90;;;;;;4945490;28;20405;-81
2022/11/20 09:31:30;;;;;;;37.53;21.38;;;2.10;99.90;;;;;;4942333;28;20035;-82
2022/11/20 09:33:56;;;;;;;27.42;16.23;;;2.20;99.90;;;;;;4931403;28;20486;-81
2022/11/20 09:36:23;;;;;;;26.15;15.85;;;2.30;99.90;;;;;;4960351;28;20041;-82
2022/11/20 09:38:49;;;;;;;30.90;17.73;;;2.40;99.90;;;;;;4962793;28;20035;-81
2022/11/20 09:41:23;;;;;;;37.45;21.35;;;2.50;99.90;;;;;;4969692;28;20084;-82
2022/11/20 09:43:58;;;;;;;43.03;24.65;;;2.60;99.90;;;;;;4949992;28;20115;-82
2022/11/20 09:46:40;;;;;;;45.83;25.25;;;2.60;99.90;;;;;;4961793;28;20023;-82
2022/11/20 09:49:15;;;;;;;47.20;26.35;;;2.70;99.90;;;;;;4950788;28;20035;-81
2022/11/20 09:51:51;;;;;;;36.22;19.67;;;2.80;99.90;;;;;;4960129;28;20070;-82
2022/11/20 09:54:18;;;;;;;32.55;17.15;;;2.90;99.90;;;;;;4967867;28;20041;-82
2022/11/20 09:56:54;;;;;;;30.70;17.98;;;3.00;99.90;;;;;;4947124;28;20054;-81
2022/11/20 09:59:32;;;;;;;26.83;16.15;;;3.10;99.90;;;;;;4937497;28;20027;-82
2022/11/20 10:01:58;;;;;;;33.70;17.98;;;3.20;99.90;;;;;;4951062;28;20066;-82
2022/11/20 10:04:24;;;;;;;38.55;20.40;;;3.30;99.90;;;;;;4938352;28;20084;-82
2022/11/20 10:07:04;;;;;;;24.33;13.85;;;3.40;99.90;;;;;;4962506;28;20027;-83
2022/11/20 10:09:37;;;;;;;35.85;18.83;;;3.40;99.90;;;;;;4936664;28;20043;-83
2022/11/20 10:12:17;;;;;;;23.98;14.65;;;3.50;99.90;;;;;;4955851;28;20509;-83
2022/11/20 10:15:21;;;;;;;26.13;14.68;;;3.60;99.90;;;;;;4950324;28;20042;-83
2022/11/20 10:18:01;;;;;;;28.67;15.70;;;3.70;99.90;;;;;;4974724;28;20038;-84
2022/11/20 10:20:35;;;;;;;23.00;12.80;;;3.70;99.90;;;;;;4962972;28;20026;-83
2022/11/20 10:23:16;;;;;;;22.75;13.45;;;3.80;99.90;;;;;;4975757;28;20023;-83
2022/11/20 10:26:01;;;;;;;19.88;12.18;;;3.90;99.90;;;;;;4946370;28;20098;-83
2022/11/20 10:28:38;;;;;;;22.52;12.30;;;4.00;99.90;;;;;;4961565;28;20190;-84
2022/11/20 10:31:07;;;;;;;20.10;12.13;;;4.20;99.90;;;;;;4962691;28;20453;-84
2022/11/20 10:33:44;;;;;;;21.25;12.85;;;4.20;99.90;;;;;;4930297;28;20439;-84
2022/11/20 10:36:17;;;;;;;;;;;4.30;99.90;;;;;;4919536;28;20055;-84
2022/11/20 10:38:44;;;;;;;18.02;10.90;;;4.40;99.90;;;;;;4926693;28;19914;-85
2022/11/20 10:41:26;;;;;;;16.88;9.50;;;4.40;99.90;;;;;;4966150;28;20031;-84
2022/11/20 10:45:00;;;;;;;19.15;11.75;;;4.30;99.90;;;;;;4935952;28;20114;-83
2022/11/20 10:47:01;;;;;;;21.15;9.95;;;4.30;99.90;;;;;;4965970;28;20113;-84
2022/11/20 10:49:27;;;;;;;16.10;9.45;;;4.50;99.90;;;;;;4936650;28;20490;-84
2022/11/20 10:52:19;;;;;;;15.50;10.68;;;4.50;99.90;;;;;;4950343;28;20042;-86
2022/11/20 10:54:49;;;;;;;16.00;9.73;;;4.50;99.90;;;;;;4934749;28;20031;-85
2022/11/20 10:57:39;;;;;;;18.38;9.90;;;4.60;99.90;;;;;;4956755;28;20097;-84
2022/11/20 11:00:09;;;;;;;15.43;9.50;;;4.60;99.90;;;;;;4968844;28;20126;-84
2022/11/20 11:02:48;;;;;;;16.10;9.90;;;4.70;99.90;;;;;;4956520;28;20035;-85
2022/11/20 11:05:18;;;;;;;15.50;9.88;;;4.70;99.90;;;;;;4944983;28;20037;-85
2022/11/20 11:07:44;;;;;;;17.08;9.40;;;4.80;99.90;;;;;;4968916;28;20122;-84
2022/11/20 11:10:15;;;;;;;17.23;10.25;;;4.90;99.90;;;;;;4950355;28;20122;-84
2022/11/20 11:12:44;;;;;;;13.85;9.05;;;5.00;99.90;;;;;;4956053;28;20035;-85
2022/11/20 11:15:15;;;;;;;18.65;11.25;;;5.00;99.90;;;;;;4945129;28;20039;-84
2022/11/20 11:17:46;;;;;;;15.75;9.63;;;5.10;99.90;;;;;;4964903;28;20061;-84
2022/11/20 11:20:21;;;;;;;16.25;9.32;;;5.20;99.90;;;;;;4923192;28;20028;-84
2022/11/20 11:22:50;;;;;;;15.95;9.63;;;5.20;99.90;;;;;;4949142;28;20417;-84
2022/11/20 11:25:26;;;;;;;18.45;9.20;;;5.30;99.90;;;;;;4952923;28;20478;-84
2022/11/20 11:27:52;;;;;;;17.23;10.40;;;5.40;99.90;;;;;;4966627;28;20120;-85
2022/11/20 11:30:19;;;;;;;14.93;8.93;;;5.50;99.90;;;;;;4974348;28;20355;-84
2022/11/20 11:32:45;;;;;;;16.10;9.02;;;5.60;99.90;;;;;;4958631;28;20030;-84
2022/11/20 11:35:19;;;;;;;14.18;8.75;;;5.50;99.90;;;;;;4947205;28;20026;-85
2022/11/20 11:37:45;;;;;;;22.73;12.32;;;5.60;99.90;;;;;;4965689;28;20520;-84
2022/11/20 11:40:12;;;;;;;17.98;10.68;;;5.60;99.90;;;;;;4952902;28;20031;-85
2022/11/20 11:42:42;;;;;;;17.60;8.13;;;5.60;99.90;;;;;;4962944;28;20027;-85
2022/11/20 11:45:13;;;;;;;14.80;8.68;;;5.80;99.90;;;;;;4964802;28;20026;-84
2022/11/20 11:47:41;;;;;;;14.30;8.48;;;5.70;99.90;;;;;;4951463;28;20031;-84
2022/11/20 11:50:10;;;;;;;18.42;10.73;;;5.90;99.90;;;;;;4955222;28;20023;-84
2022/11/20 11:53:02;;;;;;;20.83;12.10;;;5.90;99.90;;;;;;4955331;28;20074;-84
2022/11/20 11:55:38;;;;;;;17.88;8.70;;;6.00;99.90;;;;;;4943250;28;20066;-83
2022/11/20 11:58:28;;;;;;;23.98;13.43;;;6.10;99.90;;;;;;4951549;28;20046;-84
2022/11/20 12:00:58;;;;;;;16.90;8.82;;;6.10;99.90;;;;;;4964006;28;20095;-84
2022/11/20 12:03:28;;;;;;;15.18;9.35;;;6.20;99.90;;;;;;4939974;28;20397;-84
2022/11/20 12:05:58;;;;;;;15.90;9.35;;;6.10;99.90;;;;;;4965002;28;20042;-84
2022/11/20 12:08:24;;;;;;;19.17;11.05;;;6.20;99.90;;;;;;4949614;28;20035;-84
2022/11/20 12:11:06;;;;;;;16.75;9.88;;;6.40;99.90;;;;;;4963403;28;20039;-84
2022/11/20 12:13:37;;;;;;;15.43;9.68;;;6.30;99.90;;;;;;4944619;28;20031;-85
2022/11/20 12:16:03;;;;;;;22.48;13.52;;;6.40;99.90;;;;;;4984578;28;20043;-84
2022/11/20 12:18:31;;;;;;;18.40;9.82;;;6.40;99.90;;;;;;4935622;28;20494;-84
2022/11/20 12:21:05;;;;;;;17.05;9.63;;;6.40;99.90;;;;;;4932800;28;20042;-84
2022/11/20 12:23:35;;;;;;;16.40;9.73;;;6.40;99.90;;;;;;4940063;28;20027;-84
2022/11/20 12:26:02;;;;;;;23.60;12.35;;;6.40;99.90;;;;;;4961969;28;20380;-84
2022/11/20 12:28:44;;;;;;;17.42;10.32;;;6.30;99.90;;;;;;4607747;28;9999849;-84
2022/11/20 12:31:28;;;;;;;21.80;12.05;;;6.30;99.90;;;;;;4946977;28;20093;-85
2022/11/20 12:34:26;;;;;;;17.88;10.73;;;6.40;99.90;;;;;;4975041;28;20042;-85
2022/11/20 12:37:16;;;;;;;17.88;10.88;;;6.30;99.90;;;;;;4952559;28;20054;-84
2022/11/20 12:39:52;;;;;;;24.33;13.18;;;6.20;99.90;;;;;;4980694;28;20860;-85
2022/11/20 12:45:10;;;;;;;21.75;11.60;;;6.20;99.90;;;;;;4962643;28;19937;-85
2022/11/20 12:48:00;;;;;;;18.17;10.77;;;6.20;99.90;;;;;;4962928;28;20034;-85
2022/11/20 12:50:38;;;;;;;20.95;11.52;;;6.10;99.90;;;;;;4945165;28;20139;-85
2022/11/20 12:53:10;;;;;;;18.30;10.73;;;6.00;99.90;;;;;;4985334;28;20078;-85